Time;durP1;ratioP1;P1;durP2;ratioP2;P2;SDS_P1;SDS_P2;PMS_P1;PMS_P2;Temp;Humidity;BMP_temperature;BMP_pressure;BME280_temperature;BME280_humidity;BME280_pressure;Samples;Min_cycle;Max_cycle;Signal;HPM_P1;HPM_P2
2022/06/18 00:00:22;;;;;;;55.67;32.30;;;;;;;15.26;97.57;100215.47;5107204;28;20028;-65
2022/06/18 00:02:48;;;;;;;54.13;32.10;;;;;;;15.28;97.72;100216.28;5107326;28;20020;-64
2022/06/18 00:05:17;;;;;;;52.75;29.27;;;;;;;15.29;97.63;100208.38;5107286;28;20023;-65
2022/06/18 00:07:46;;;;;;;55.85;31.13;;;;;;;15.32;97.50;100183.91;5106989;28;20028;-65
2022/06/18 00:10:15;;;;;;;65.15;31.75;;;;;;;15.30;97.36;100188.31;5107098;28;20088;-66
2022/06/18 00:15:28;;;;;;;54.22;31.90;;;;;;;15.31;97.05;100162.13;5107253;28;20039;-68
2022/06/18 00:17:54;;;;;;;45.22;24.80;;;;;;;15.31;97.12;100156.91;5106871;28;20016;-67
2022/06/18 00:20:22;;;;;;;60.10;31.38;;;;;;;15.34;97.08;100156.78;5107040;28;20035;-67
2022/06/18 00:22:51;;;;;;;50.63;25.58;;;;;;;15.36;96.81;100170.69;5106850;28;20035;-67
2022/06/18 00:25:25;;;;;;;52.67;29.75;;;;;;;15.45;96.59;100158.19;5107039;28;20470;-68
2022/06/18 00:27:50;;;;;;;45.47;27.10;;;;;;;15.49;96.81;100146.75;5107095;28;20036;-68
2022/06/18 00:30:20;;;;;;;44.42;25.65;;;;;;;15.50;96.60;100158.91;5106741;28;20115;-68
2022/06/18 00:32:47;;;;;;;45.78;26.00;;;;;;;15.53;96.02;100132.63;5106960;28;20054;-69
2022/06/18 00:35:14;;;;;;;42.38;18.58;;;;;;;15.54;95.89;100134.38;5106764;28;20028;-69
2022/06/18 00:37:41;;;;;;;36.35;20.73;;;;;;;15.58;95.60;100135.09;5106665;28;20415;-68
2022/06/18 00:40:38;;;;;;;40.70;23.77;;;;;;;15.60;95.55;100126.31;5106492;28;20107;-69
2022/06/18 00:43:13;;;;;;;37.88;20.70;;;;;;;15.64;95.55;100124.41;5105276;28;20046;-69
2022/06/18 00:45:38;;;;;;;42.55;24.67;;;;;;;15.69;95.01;100116.41;5088490;28;20024;-69
2022/06/18 00:48:18;;;;;;;45.88;22.38;;;;;;;15.73;94.73;100110.19;5106443;28;20456;-69
2022/06/18 00:50:51;;;;;;;44.10;24.58;;;;;;;15.76;94.61;100115.31;5106045;28;20056;-69
2022/06/18 00:53:27;;;;;;;35.88;22.25;;;;;;;15.72;94.28;100111.06;5106483;28;20043;-69
2022/06/18 00:55:55;;;;;;;36.28;22.13;;;;;;;15.77;93.85;100119.63;5106461;28;20020;-70
2022/06/18 00:58:33;;;;;;;43.70;22.80;;;;;;;15.78;93.99;100113.50;5106229;28;20040;-70
2022/06/18 01:00:59;;;;;;;37.58;22.15;;;;;;;15.79;93.60;100115.19;5106130;28;20050;-70
2022/06/18 01:03:35;;;;;;;50.67;16.92;;;;;;;15.77;93.57;100118.78;5106308;28;20081;-69
2022/06/18 01:06:23;;;;;;;36.45;18.83;;;;;;;15.79;93.14;100122.19;5105920;28;20032;-70
2022/06/18 01:08:57;;;;;;;34.78;19.73;;;;;;;15.83;93.28;100122.03;5105539;28;20024;-69
2022/06/18 01:11:27;;;;;;;42.78;21.52;;;;;;;15.85;93.02;100122.84;5105943;28;20028;-69
2022/06/18 01:13:54;;;;;;;37.92;22.00;;;;;;;15.87;93.05;100114.94;5106163;28;20149;-69
2022/06/18 01:16:21;;;;;;;36.70;21.10;;;;;;;15.89;92.81;100120.09;5105886;28;20024;-69
2022/06/18 01:18:48;;;;;;;46.78;21.17;;;;;;;15.94;92.85;100119.03;5105851;28;20019;-69
2022/06/18 01:21:13;;;;;;;38.05;21.55;;;;;;;15.92;92.20;100118.25;5105474;28;20483;-68
2022/06/18 01:23:45;;;;;;;41.75;22.00;;;;;;;15.91;91.79;100106.03;5105866;28;20032;-68
2022/06/18 01:26:11;;;;;;;42.30;22.63;;;;;;;15.95;92.04;100101.56;5105857;28;20232;-68
2022/06/18 01:28:37;;;;;;;33.75;22.38;;;;;;;15.99;91.58;100105.78;5105708;28;20357;-68
2022/06/18 01:31:02;;;;;;;43.78;24.70;;;;;;;16.01;91.50;100106.59;5105402;28;20031;-69
2022/06/18 01:33:29;;;;;;;35.15;21.10;;;;;;;15.97;91.46;100095.38;5105672;28;20093;-68
2022/06/18 01:35:55;;;;;;;39.55;22.40;;;;;;;15.97;91.50;100105.84;5105361;28;20379;-69
2022/06/18 01:38:24;;;;;;;43.40;25.38;;;;;;;16.03;91.37;100098.69;5106282;28;20075;-69
2022/06/18 01:43:52;;;;;;;42.47;26.73;;;;;;;16.04;91.52;100089.94;5105595;28;20039;-69
2022/06/18 01:46:17;;;;;;;42.40;25.23;;;;;;;16.06;91.81;100088.09;5105469;28;20032;-69
2022/06/18 01:48:45;;;;;;;41.25;24.98;;;;;;;16.05;91.67;100073.31;5086835;28;20198;-70
2022/06/18 01:51:16;;;;;;;43.65;26.40;;;;;;;16.05;91.53;100087.28;5105285;28;20031;-69
2022/06/18 01:53:48;;;;;;;39.00;26.20;;;;;;;16.00;91.66;100083.09;5105361;28;20437;-69
2022/06/18 01:56:17;;;;;;;39.38;24.23;;;;;;;15.97;91.45;100074.44;5105255;28;20032;-69
2022/06/18 01:59:15;;;;;;;42.70;25.35;;;;;;;15.95;91.46;100065.78;5104886;28;20044;-69
2022/06/18 02:01:43;;;;;;;38.38;24.60;;;;;;;16.00;91.83;100068.25;5104866;28;20052;-69
2022/06/18 02:04:09;;;;;;;47.83;27.33;;;;;;;15.96;91.70;100056.13;5086940;28;20039;-69
2022/06/18 02:06:37;;;;;;;45.47;27.50;;;;;;;15.91;91.63;100071.19;5104792;28;20024;-68
2022/06/18 02:09:27;;;;;;;43.00;27.65;;;;;;;15.84;91.53;100065.31;5104704;28;20055;-69
2022/06/18 02:11:56;;;;;;;43.50;26.92;;;;;;;15.83;91.62;100061.81;5104694;28;20085;-69
2022/06/18 02:14:23;;;;;;;34.50;22.30;;;;;;;15.81;91.74;100061.03;5104725;28;20032;-69
2022/06/18 02:16:51;;;;;;;45.33;26.13;;;;;;;15.81;91.73;100057.56;5104667;28;20070;-69
2022/06/18 02:19:18;;;;;;;40.22;27.73;;;;;;;15.81;91.75;100061.03;5085195;28;20092;-69
2022/06/18 02:21:49;;;;;;;42.28;26.90;;;;;;;15.80;91.66;100061.94;5104475;28;20028;-71
2022/06/18 02:24:16;;;;;;;47.08;28.30;;;;;;;15.79;91.76;100057.63;5104594;28;20024;-69
2022/06/18 02:26:43;;;;;;;41.55;28.02;;;;;;;15.80;91.78;100061.09;5104283;28;20020;-68
2022/06/18 02:29:26;;;;;;;43.50;27.88;;;;;;;15.78;91.76;100057.69;5104542;28;20077;-69
2022/06/18 02:31:52;;;;;;;44.17;28.17;;;;;;;15.77;92.06;100058.59;5104635;28;20020;-70
2022/06/18 02:34:22;;;;;;;43.20;26.95;;;;;;;15.70;91.65;100058.78;5104407;28;20020;-69
2022/06/18 02:36:47;;;;;;;48.33;28.75;;;;;;;15.72;91.54;100067.44;5104034;28;20020;-70
2022/06/18 02:39:21;;;;;;;42.72;28.35;;;;;;;15.69;91.89;100067.56;5104477;28;20044;-70
2022/06/18 02:41:46;;;;;;;43.55;27.83;;;;;;;15.69;91.80;100064.94;5085854;28;20043;-70
2022/06/18 02:44:13;;;;;;;45.22;27.50;;;;;;;15.65;91.50;100060.72;5104329;28;20039;-70
2022/06/18 02:46:40;;;;;;;54.83;29.40;;;;;;;15.61;91.69;100056.50;5103985;28;20019;-70
2022/06/18 02:49:07;;;;;;;60.47;30.15;;;;;;;15.59;91.96;100055.72;5104148;28;20024;-70
2022/06/18 02:51:36;;;;;;;49.42;29.98;;;;;;;15.58;92.03;100056.59;5103896;28;20028;-70
2022/06/18 02:54:03;;;;;;;52.00;31.48;;;;;;;15.52;91.98;100056.81;5104291;28;20039;-70
2022/06/18 02:56:28;;;;;;;54.53;30.90;;;;;;;15.48;92.14;100056.06;5103884;28;20026;-70
2022/06/18 02:58:54;;;;;;;43.72;28.85;;;;;;;15.46;92.32;100053.50;5103735;28;20119;-70
2022/06/18 03:01:24;;;;;;;40.42;28.95;;;;;;;15.49;92.33;100063.84;5103848;28;20066;-70
2022/06/18 03:03:56;;;;;;;41.25;28.38;;;;;;;15.50;92.38;100067.34;5085752;28;20028;-70
2022/06/18 03:06:23;;;;;;;;;;;;;;;15.53;91.81;100066.41;5104324;28;20126;-70
2022/06/18 03:08:49;;;;;;;47.03;27.73;;;;;;;15.49;92.31;100048.16;5103724;28;19979;-71
2022/06/18 03:14:04;;;;;;;45.97;28.45;;;;;;;15.51;92.14;100052.50;5103948;28;20031;-70
2022/06/18 03:16:30;;;;;;;46.33;27.75;;;;;;;15.48;91.84;100058.69;5103773;28;20080;-71
2022/06/18 03:18:57;;;;;;;43.70;26.65;;;;;;;15.46;92.25;100057.91;5103788;28;20335;-71
2022/06/18 03:21:45;;;;;;;38.67;25.40;;;;;;;15.51;92.32;100058.56;5103484;28;20128;-71
2022/06/18 03:24:11;;;;;;;40.63;22.50;;;;;;;15.61;92.68;100053.88;5103856;28;20027;-71
2022/06/18 03:26:37;;;;;;;35.00;22.48;;;;;;;15.71;92.65;100046.56;5103548;28;20020;-71
2022/06/18 03:29:05;;;;;;;43.72;21.65;;;;;;;15.85;92.70;100048.69;5103564;28;20468;-72
2022/06/18 03:31:31;;;;;;;34.10;22.08;;;;;;;15.92;91.77;100044.94;5103093;28;20032;-70
2022/06/18 03:33:56;;;;;;;29.13;20.58;;;;;;;15.96;91.06;100043.03;5103687;28;20046;-70
2022/06/18 03:36:22;;;;;;;39.85;21.63;;;;;;;16.09;91.12;100044.34;5103154;28;20597;-71
2022/06/18 03:38:49;;;;;;;34.90;20.88;;;;;;;16.14;90.90;100052.03;5103420;28;20076;-71
2022/06/18 03:41:14;;;;;;;31.40;20.52;;;;;;;16.15;89.91;100047.66;5103159;28;20024;-71
2022/06/18 03:43:40;;;;;;;33.20;19.33;;;;;;;16.14;89.26;100053.78;5103311;28;20035;-70
2022/06/18 03:46:09;;;;;;;39.58;21.30;;;;;;;16.14;89.04;100056.41;5103252;28;20138;-71
2022/06/18 03:48:43;;;;;;;33.90;20.92;;;;;;;16.10;89.09;100059.13;5103242;28;20027;-70
2022/06/18 03:51:10;;;;;;;36.33;20.77;;;;;;;16.07;88.68;100054.00;5102943;28;20043;-70
2022/06/18 03:53:36;;;;;;;34.13;21.20;;;;;;;16.00;88.06;100042.06;5103323;28;20027;-71
2022/06/18 03:56:01;;;;;;;33.15;20.25;;;;;;;15.94;88.29;100042.28;5103446;28;20032;-72
2022/06/18 03:58:28;;;;;;;37.65;20.35;;;;;;;15.92;88.11;100039.72;5102979;28;20072;-72
2022/06/18 04:00:54;;;;;;;39.58;20.08;;;;;;;15.91;88.81;100047.63;5103153;28;20032;-72
2022/06/18 04:03:19;;;;;;;34.80;18.77;;;;;;;15.91;88.49;100034.53;5103168;28;20024;-71
2022/06/18 04:05:44;;;;;;;40.22;19.65;;;;;;;15.85;87.96;100049.53;5103339;28;20027;-71
2022/06/18 04:08:14;;;;;;;34.90;18.67;;;;;;;15.81;87.64;100042.72;5102990;28;20028;-72
2022/06/18 04:10:40;;;;;;;35.80;18.42;;;;;;;15.80;88.35;100034.94;5102952;28;20028;-71
2022/06/18 04:13:06;;;;;;;40.22;18.13;;;;;;;15.76;88.01;100044.66;5103170;28;20027;-72
2022/06/18 04:15:31;;;;;;;36.72;17.85;;;;;;;15.73;87.69;100024.66;5103294;28;20020;-72
2022/06/18 04:17:57;;;;;;;33.90;17.85;;;;;;;15.74;87.82;100018.53;5102953;28;20020;-70
2022/06/18 04:20:32;;;;;;;32.83;16.10;;;;;;;15.76;87.64;100028.94;5103317;28;20104;-72
2022/06/18 04:22:58;;;;;;;35.97;16.13;;;;;;;15.78;87.67;100031.50;5103101;28;20024;-72
2022/06/18 04:25:24;;;;;;;35.22;14.90;;;;;;;15.81;86.83;100040.09;5103147;28;20108;-72
2022/06/18 04:27:50;;;;;;;30.00;14.15;;;;;;;15.72;87.03;100037.78;5102948;28;20020;-72
2022/06/18 04:30:17;;;;;;;37.08;16.13;;;;;;;15.64;87.05;100034.63;5103181;28;20035;-72
2022/06/18 04:32:42;;;;;;;26.25;14.32;;;;;;;15.60;86.86;100034.72;5102976;28;20024;-73
2022/06/18 04:35:11;;;;;;;26.25;13.57;;;;;;;15.54;86.50;100039.31;5102975;28;20024;-72
2022/06/18 04:37:37;;;;;;;26.88;12.93;;;;;;;15.55;86.05;100033.16;5102665;28;20027;-73
2022/06/18 04:40:03;;;;;;;28.80;13.93;;;;;;;15.44;86.62;100017.84;5103002;28;20035;-72
2022/06/18 04:42:29;;;;;;;25.30;13.88;;;;;;;15.45;86.52;100032.63;5103829;28;20033;-72
2022/06/18 04:44:54;;;;;;;25.92;13.95;;;;;;;15.36;86.34;100015.50;5106968;28;20024;-72
2022/06/18 04:47:20;;;;;;;29.98;14.60;;;;;;;15.41;86.35;100023.19;5106652;28;20020;-72
2022/06/18 04:49:45;;;;;;;33.97;14.57;;;;;;;15.39;86.39;100027.63;5106629;28;20047;-72
2022/06/18 04:52:11;;;;;;;31.65;14.25;;;;;;;15.39;86.39;100028.47;5106339;28;20050;-73
2022/06/18 04:54:36;;;;;;;29.42;15.50;;;;;;;15.39;86.20;100030.22;5106826;28;20027;-73
2022/06/18 04:57:03;;;;;;;29.85;15.02;;;;;;;15.37;86.34;100022.44;5088259;28;20016;-73
2022/06/18 04:59:29;;;;;;;31.52;15.60;;;;;;;15.40;86.23;100024.13;5106328;28;20086;-71
2022/06/18 05:02:03;;;;;;;15.40;11.10;;;;;;;15.45;85.85;100012.56;5106202;28;20020;-73
2022/06/18 05:04:30;;;;;;;27.10;13.48;;;;;;;15.42;85.66;100017.03;5106435;28;20083;-71
2022/06/18 05:06:55;;;;;;;21.48;11.45;;;;;;;15.36;85.73;100025.97;5106099;28;20031;-72
2022/06/18 05:09:20;;;;;;;23.83;10.80;;;;;;;15.29;85.69;100020.09;5106146;28;20083;-72
2022/06/18 05:11:46;;;;;;;23.83;11.32;;;;;;;15.32;85.65;100025.22;5105929;28;20020;-71
2022/06/18 05:14:14;;;;;;;22.48;11.93;;;;;;;15.21;85.54;100016.88;5106269;28;20020;-73
2022/06/18 05:16:40;;;;;;;18.83;10.23;;;;;;;15.19;85.38;100030.00;5106257;28;20353;-72
2022/06/18 05:19:06;;;;;;;28.98;11.32;;;;;;;15.17;85.44;100036.19;5105878;28;20071;-72
2022/06/18 05:21:31;;;;;;;19.65;10.40;;;;;;;15.15;85.34;100036.25;5105883;28;20107;-73
2022/06/18 05:23:56;;;;;;;26.77;10.18;;;;;;;15.14;85.60;100025.84;5105850;28;20047;-73
2022/06/18 05:26:22;;;;;;;26.90;11.02;;;;;;;15.10;85.60;100020.72;5087694;28;20608;-73
2022/06/18 05:28:47;;;;;;;25.45;9.85;;;;;;;15.14;85.64;100031.06;5105820;28;20031;-73
2022/06/18 05:31:13;;;;;;;27.65;11.00;;;;;;;15.15;85.57;100030.16;5105845;28;20515;-71
2022/06/18 05:33:38;;;;;;;23.80;10.70;;;;;;;15.17;85.74;100028.38;5105701;28;20019;-73
2022/06/18 05:36:05;;;;;;;24.05;10.52;;;;;;;15.20;85.87;100023.03;5105411;28;20078;-72
2022/06/18 05:38:30;;;;;;;27.23;11.13;;;;;;;15.23;85.77;100030.75;5105649;28;20027;-71
2022/06/18 05:40:56;;;;;;;25.25;11.60;;;;;;;15.26;85.90;100025.44;5105565;28;20020;-71
2022/06/18 05:43:21;;;;;;;21.20;10.15;;;;;;;15.26;85.41;100029.78;5105814;28;20027;-71
2022/06/18 05:45:47;;;;;;;26.55;10.77;;;;;;;15.25;85.31;100036.81;5105460;28;20020;-71
2022/06/18 05:48:13;;;;;;;27.48;10.50;;;;;;;15.24;85.54;100040.31;5105774;28;20034;-71
2022/06/18 05:50:38;;;;;;;20.98;9.57;;;;;;;15.22;85.32;100031.69;5105348;28;20051;-73
2022/06/18 05:53:04;;;;;;;26.92;9.65;;;;;;;15.21;85.18;100035.19;5104958;28;20145;-72
2022/06/18 05:55:29;;;;;;;24.30;11.15;;;;;;;15.19;85.03;100045.69;5105348;28;20020;-72
2022/06/18 05:57:58;;;;;;;19.52;9.63;;;;;;;15.17;85.02;100042.28;5105104;28;20016;-74
2022/06/18 06:00:31;;;;;;;27.65;11.52;;;;;;;15.11;85.33;100051.19;5105646;28;20035;-73
2022/06/18 06:02:57;;;;;;;32.75;9.32;;;;;;;15.07;85.58;100030.41;5105281;28;20020;-73
2022/06/18 06:05:22;;;;;;;24.48;9.57;;;;;;;15.18;85.54;100049.22;5087227;28;20123;-72
2022/06/18 06:07:49;;;;;;;22.80;10.48;;;;;;;15.21;85.43;100050.88;5104908;28;20224;-72
2022/06/18 06:13:16;;;;;;;17.23;7.65;;;;;;;15.21;84.75;100050.88;5105218;28;20039;-73
2022/06/18 06:15:42;;;;;;;19.27;7.10;;;;;;;15.21;84.36;100053.47;5105231;28;20372;-72
2022/06/18 06:18:10;;;;;;;15.90;6.60;;;;;;;15.21;84.33;100054.34;5087057;28;20024;-73
2022/06/18 06:20:40;;;;;;;13.82;6.80;;;;;;;15.35;84.61;100053.03;5105082;28;20020;-73
2022/06/18 06:23:07;;;;;;;15.27;6.47;;;;;;;15.44;84.09;100049.25;5104822;28;20070;-73
2022/06/18 06:25:33;;;;;;;17.40;6.15;;;;;;;15.51;83.66;100061.19;5104704;28;20031;-73
2022/06/18 06:27:58;;;;;;;23.45;5.95;;;;;;;15.47;82.82;100052.63;5104756;28;20024;-72
2022/06/18 06:30:24;;;;;;;17.75;6.70;;;;;;;15.50;82.76;100059.50;5104752;28;20450;-73
2022/06/18 06:32:49;;;;;;;19.75;6.88;;;;;;;15.51;82.88;100050.72;5104853;28;20020;-74
2022/06/18 06:35:15;;;;;;;16.13;6.50;;;;;;;15.52;82.49;100047.22;5086581;28;20024;-74
2022/06/18 06:37:41;;;;;;;10.13;6.22;;;;;;;15.54;82.24;100048.03;5104333;28;20016;-72
2022/06/18 06:40:09;;;;;;;18.08;7.00;;;;;;;15.57;82.36;100040.06;5104367;28;20028;-72
2022/06/18 06:42:49;;;;;;;17.30;6.97;;;;;;;15.59;82.18;100038.22;5086323;28;20406;-72
2022/06/18 06:45:23;;;;;;;24.05;7.20;;;;;;;15.60;81.84;100046.94;5104718;28;20020;-73
2022/06/18 06:47:49;;;;;;;19.60;7.35;;;;;;;15.60;81.83;100049.56;5104481;28;20031;-73
2022/06/18 06:50:16;;;;;;;20.25;7.45;;;;;;;15.61;81.62;100059.97;5086493;28;20024;-73
2022/06/18 06:52:42;;;;;;;22.95;7.55;;;;;;;15.60;81.65;100057.41;5104221;28;20047;-72
2022/06/18 06:58:03;;;;;;;20.73;7.68;;;;;;;15.72;81.71;100054.34;5104008;28;20391;-72
2022/06/18 07:00:29;;;;;;;25.00;7.35;;;;;;;15.74;81.09;100049.06;5085634;28;20055;-74
2022/06/18 07:02:55;;;;;;;18.08;8.45;;;;;;;15.83;81.28;100045.28;5103879;28;20032;-75
2022/06/18 07:05:20;;;;;;;17.85;7.03;;;;;;;15.90;80.97;100058.97;5085057;28;20030;-73
2022/06/18 07:07:45;;;;;;;19.77;6.78;;;;;;;15.97;81.33;100052.63;5103647;28;20045;-74
2022/06/18 07:10:11;;;;;;;16.65;6.97;;;;;;;15.97;80.96;100040.41;5103817;28;20020;-73
2022/06/18 07:12:38;;;;;;;17.00;7.38;;;;;;;16.09;80.69;100049.56;5103757;28;20024;-74
2022/06/18 07:15:04;;;;;;;17.40;6.38;;;;;;;16.25;80.43;100046.38;5104121;28;20098;-74
2022/06/18 07:17:30;;;;;;;21.00;6.95;;;;;;;16.43;80.23;100054.44;5085339;28;20036;-74
2022/06/18 07:19:55;;;;;;;15.27;6.30;;;;;;;16.47;79.40;100046.41;5103802;28;20084;-72
2022/06/18 07:22:20;;;;;;;15.25;7.10;;;;;;;16.62;79.04;100048.47;5103494;28;20113;-73
2022/06/18 07:24:46;;;;;;;23.05;6.60;;;;;;;16.69;78.03;100065.69;5103518;28;20093;-73
2022/06/18 07:27:11;;;;;;;17.05;6.15;;;;;;;16.73;78.11;100051.53;5103484;28;20055;-74
2022/06/18 07:29:37;;;;;;;16.42;5.80;;;;;;;16.89;77.88;100045.66;5103377;28;20028;-71
2022/06/18 07:32:21;;;;;;;18.98;6.47;;;;;;;17.08;77.73;100051.03;5103284;28;20028;-74
2022/06/18 07:34:46;;;;;;;19.55;6.45;;;;;;;17.17;76.91;100042.78;5103611;28;20027;-73
2022/06/18 07:37:12;;;;;;;18.55;5.57;;;;;;;17.44;76.75;100041.69;5103314;28;20030;-68
2022/06/18 07:39:37;;;;;;;17.48;6.75;;;;;;;17.91;75.85;100042.25;5103477;28;20525;-70
2022/06/18 07:42:04;;;;;;;13.35;5.28;;;;;;;18.21;74.26;100039.22;5103248;28;20035;-72
2022/06/18 07:44:30;;;;;;;10.63;5.55;;;;;;;18.25;72.48;100046.03;5103607;28;20049;-73
2022/06/18 07:47:13;;;;;;;12.95;5.20;;;;;;;18.29;71.63;100034.44;5103445;28;20307;-73
2022/06/18 07:49:38;;;;;;;14.57;5.05;;;;;;;18.51;71.80;100043.94;5085640;28;20052;-72
2022/06/18 07:52:04;;;;;;;11.68;4.80;;;;;;;18.79;69.59;100031.22;5103446;28;20050;-74
2022/06/18 07:54:29;;;;;;;13.57;6.45;;;;;;;19.05;68.94;100039.59;5103783;28;20032;-73
2022/06/18 07:56:54;;;;;;;13.98;5.20;;;;;;;19.15;69.05;100025.06;5103328;28;20548;-74
2022/06/18 07:59:20;;;;;;;19.63;6.03;;;;;;;19.23;66.56;100037.88;5084990;28;20044;-73
2022/06/18 08:01:46;;;;;;;10.48;4.57;;;;;;;19.20;66.25;100024.88;5103238;28;20020;-73
2022/06/18 08:04:11;;;;;;;12.18;4.75;;;;;;;19.41;66.80;100033.44;5103275;28;20072;-73
2022/06/18 08:06:37;;;;;;;12.02;5.32;;;;;;;19.82;65.64;100042.72;5103075;28;20065;-74
2022/06/18 08:09:02;;;;;;;17.35;5.13;;;;;;;20.22;65.34;100045.97;5085017;28;20035;-74
2022/06/18 08:11:29;;;;;;;17.42;4.38;;;;;;;20.92;64.28;100047.38;5103148;28;20074;-75
2022/06/18 08:13:57;;;;;;;14.45;4.60;;;;;;;21.66;61.76;100043.94;5103479;28;20446;-75
2022/06/18 08:16:22;;;;;;;10.02;3.92;;;;;;;22.24;60.30;100041.25;5103649;28;20032;-76
2022/06/18 08:18:47;;;;;;;14.65;4.63;;;;;;;22.88;57.58;100039.84;5106560;28;20020;-73
2022/06/18 08:21:27;;;;;;;15.52;4.93;;;;;;;23.36;56.42;100045.53;5107147;28;20042;-75
2022/06/18 08:23:56;;;;;;;22.08;6.22;;;;;;;23.85;55.38;100043.94;5107689;28;20031;-74
2022/06/18 08:26:24;;;;;;;14.13;4.22;;;;;;;24.31;52.83;100048.75;5089211;28;20028;-73
2022/06/18 08:28:49;;;;;;;11.43;4.00;;;;;;;24.33;51.88;100057.47;5107197;28;20082;-74
2022/06/18 08:31:15;;;;;;;13.30;4.68;;;;;;;24.34;50.92;100059.16;5107002;28;20024;-73
2022/06/18 08:33:40;;;;;;;12.05;4.15;;;;;;;24.17;50.56;100055.91;5107264;28;20024;-73
2022/06/18 08:36:10;;;;;;;13.32;4.72;;;;;;;24.07;51.42;100060.16;5106971;28;20024;-71
2022/06/18 08:38:38;;;;;;;11.48;4.38;;;;;;;24.28;50.36;100063.09;5106810;28;20020;-68
2022/06/18 08:41:09;;;;;;;11.60;4.22;;;;;;;24.73;49.42;100062.47;5106861;28;20476;-71
2022/06/18 08:44:12;;;;;;;14.87;4.80;;;;;;;24.84;47.84;100060.84;5106808;28;20072;-69
2022/06/18 08:47:05;;;;;;;9.05;3.88;;;;;;;25.04;47.91;100058.53;5106806;28;20020;-69
2022/06/18 08:49:30;;;;;;;11.10;4.15;;;;;;;25.11;47.08;100063.25;5106570;28;20023;-68
2022/06/18 08:52:23;;;;;;;22.65;4.85;;;;;;;25.24;47.27;100073.78;5106437;28;20063;-67
2022/06/18 08:54:59;;;;;;;10.27;4.25;;;;;;;25.79;45.82;100061.72;5106624;28;20083;-67
2022/06/18 08:57:45;;;;;;;12.07;3.90;;;;;;;26.02;44.39;100067.03;5106710;28;20059;-70
2022/06/18 09:00:37;;;;;;;9.55;3.53;;;;;;;25.95;43.84;100064.00;5106217;28;20122;-68
2022/06/18 09:03:10;;;;;;;13.35;4.47;;;;;;;26.06;43.28;100067.59;5023396;28;20042;-74
2022/06/18 09:06:11;;;;;;;10.82;4.13;;;;;;;26.27;43.36;100064.19;5023634;28;20033;-63
2022/06/18 09:08:49;;;;;;;7.13;3.60;;;;;;;26.28;41.64;100060.59;5023351;28;20042;-65
2022/06/18 09:11:39;;;;;;;8.52;3.63;;;;;;;26.36;42.58;100066.13;5023459;28;20169;-69
2022/06/18 09:14:14;;;;;;;9.20;3.28;;;;;;;26.60;40.72;100065.09;5023695;28;20045;-70
2022/06/18 09:16:47;;;;;;;9.68;3.20;;;;;;;26.59;40.67;100066.94;5023415;28;20032;-72
2022/06/18 09:19:18;;;;;;;9.35;2.90;;;;;;;26.62;41.57;100073.81;5023482;28;20378;-70
2022/06/18 09:21:51;;;;;;;12.17;3.40;;;;;;;26.57;39.91;100070.69;5022845;28;20038;-69
2022/06/18 09:24:23;;;;;;;10.55;3.53;;;;;;;26.20;40.11;100071.84;5022780;28;20586;-73
2022/06/18 09:26:54;;;;;;;10.18;2.88;;;;;;;25.94;40.62;100069.44;5023095;28;20121;-72
2022/06/18 09:29:32;;;;;;;8.40;3.13;;;;;;;26.08;40.15;100068.34;5022728;28;20117;-72
2022/06/18 09:32:04;;;;;;;15.52;3.67;;;;;;;26.04;39.21;100064.25;5022890;28;20174;-72
2022/06/18 09:34:37;;;;;;;6.68;2.95;;;;;;;26.06;39.28;100062.28;5023199;28;20079;-73
2022/06/18 09:37:10;;;;;;;9.30;3.13;;;;;;;26.18;39.79;100063.97;5022627;28;20046;-73
2022/06/18 09:39:42;;;;;;;10.48;2.80;;;;;;;26.33;39.05;100058.41;5048286;28;20036;-72
2022/06/18 09:42:20;;;;;;;7.80;3.13;;;;;;;26.33;38.83;100051.28;5105084;28;20039;-72
2022/06/18 09:45:01;;;;;;;9.23;2.85;;;;;;;26.63;38.39;100064.84;5105911;28;20078;-72
2022/06/18 09:47:34;;;;;;;11.50;2.95;;;;;;;27.02;38.18;100068.84;5105601;28;20044;-72
2022/06/18 09:50:00;;;;;;;8.52;3.30;;;;;;;27.13;36.42;100057.28;5105286;28;20050;-72
2022/06/18 09:52:33;;;;;;;7.00;2.72;;;;;;;27.32;35.36;100053.88;5105107;28;20016;-72
2022/06/18 09:55:06;;;;;;;8.15;2.83;;;;;;;27.09;35.32;100048.72;5105577;28;20032;-72
2022/06/18 09:57:35;;;;;;;11.65;2.72;;;;;;;27.01;35.01;100060.03;5105806;28;20039;-71
2022/06/18 10:00:08;;;;;;;5.15;2.17;;;;;;;26.75;34.72;100064.81;5105220;28;20044;-70
2022/06/18 10:02:40;;;;;;;8.20;2.90;;;;;;;26.33;35.06;100061.91;5105095;28;20024;-70
2022/06/18 10:07:59;;;;;;;6.80;2.13;;;;;;;26.60;33.56;100083.72;5104875;28;20660;-71
2022/06/18 10:10:27;;;;;;;9.50;2.20;;;;;;;26.58;32.22;100083.03;5105013;28;20020;-71
2022/06/18 10:12:58;;;;;;;4.97;1.83;;;;;;;26.45;31.93;100085.84;5105074;28;20051;-71
2022/06/18 10:15:25;;;;;;;8.43;2.43;;;;;;;26.32;31.48;100094.81;5105284;28;20035;-71
2022/06/18 10:17:56;;;;;;;9.32;2.60;;;;;;;26.19;32.13;100099.41;5105006;28;20027;-71
2022/06/18 10:20:54;;;;;;;8.30;2.67;;;;;;;26.28;32.31;100098.66;5105016;28;20028;-71
2022/06/18 10:23:25;;;;;;;9.07;1.70;;;;;;;26.35;31.13;100099.03;5104901;28;20038;-71
2022/06/18 10:25:57;;;;;;;;;;;;;;;26.13;32.26;100098.09;5105261;28;20016;-71
2022/06/18 10:28:38;;;;;;;11.07;2.95;;;;;;;26.39;32.55;100108.47;5104875;28;19919;-71
2022/06/18 10:31:18;;;;;;;9.05;2.28;;;;;;;26.56;32.72;100096.47;5104654;28;20141;-71
2022/06/18 10:33:56;;;;;;;11.32;2.40;;;;;;;26.90;32.43;100102.66;5104761;28;20031;-71
2022/06/18 10:36:31;;;;;;;8.00;2.05;;;;;;;26.73;31.87;100103.06;5104466;28;20470;-72
2022/06/18 10:39:13;;;;;;;8.38;1.67;;;;;;;26.52;31.52;100083.53;5104748;28;20012;-71
2022/06/18 10:41:41;;;;;;;10.15;2.33;;;;;;;26.30;31.54;100099.38;5103939;28;20031;-72
2022/06/18 10:44:45;;;;;;;5.07;1.90;;;;;;;25.88;31.56;100097.34;5104584;28;20099;-71
2022/06/18 10:47:17;;;;;;;10.98;2.70;;;;;;;25.67;31.22;100092.75;5062335;28;20040;-71
2022/06/18 10:49:46;;;;;;;7.75;1.90;;;;;;;25.48;31.33;100096.78;5104341;28;20024;-72
2022/06/18 10:52:22;;;;;;;11.70;2.25;;;;;;;25.24;30.55;100084.44;5104044;28;20020;-71
2022/06/18 10:54:49;;;;;;;9.48;2.90;;;;;;;25.16;31.17;100060.25;5085996;28;20028;-72
2022/06/18 10:57:26;;;;;;;7.82;2.50;;;;;;;24.94;32.53;100085.78;5104223;28;20043;-73
2022/06/18 10:59:52;;;;;;;11.50;2.17;;;;;;;24.35;32.85;100082.91;5104143;28;20040;-71
2022/06/18 11:02:21;;;;;;;11.93;2.55;;;;;;;23.69;33.77;100091.88;5104060;28;20081;-71
2022/06/18 11:05:00;;;;;;;11.68;2.28;;;;;;;22.86;34.25;100102.59;5103992;28;20031;-72
2022/06/18 11:07:28;;;;;;;4.57;1.98;;;;;;;22.20;33.92;100097.94;5103996;28;20024;-72
2022/06/18 11:10:05;;;;;;;7.10;2.40;;;;;;;21.52;35.10;100109.00;5104102;28;20032;-72
2022/06/18 11:12:34;;;;;;;10.25;2.65;;;;;;;21.04;36.49;100103.84;5104017;28;20020;-72
2022/06/18 11:15:01;;;;;;;6.03;2.08;;;;;;;20.79;36.58;100105.22;5104022;28;20031;-72
2022/06/18 11:17:33;;;;;;;11.45;2.42;;;;;;;20.38;37.80;100088.13;5103877;28;20035;-72
2022/06/18 11:20:20;;;;;;;11.02;2.22;;;;;;;20.15;39.42;100099.00;5103926;28;20020;-72
2022/06/18 11:22:52;;;;;;;11.80;2.92;;;;;;;19.84;40.48;100097.94;5103591;28;20031;-72
2022/06/18 11:25:41;;;;;;;10.90;2.97;;;;;;;19.49;41.49;100098.84;5103634;28;20357;-72
2022/06/18 11:28:19;;;;;;;14.23;2.30;;;;;;;19.24;42.56;100094.81;5103418;28;20028;-71
2022/06/18 11:30:48;;;;;;;10.45;2.75;;;;;;;19.12;42.04;100113.84;5086492;28;20020;-71
2022/06/18 11:33:33;;;;;;;12.35;2.13;;;;;;;18.83;42.96;100086.22;5103482;28;20024;-71
2022/06/18 11:36:14;;;;;;;11.95;2.50;;;;;;;18.79;43.29;100100.44;5103533;28;20024;-71
2022/06/18 11:38:41;;;;;;;7.72;1.83;;;;;;;18.62;43.42;100113.53;5103248;28;20399;-71
2022/06/18 11:41:38;;;;;;;13.43;2.67;;;;;;;18.36;44.43;100124.34;5103758;28;20043;-72
2022/06/18 11:44:13;;;;;;;14.23;2.85;;;;;;;18.26;45.56;100134.41;5097200;28;20399;-71